createdAt,value
2018-12-21T00:00:15.300Z,994.06
2018-12-21T00:01:15.251Z,993.98
2018-12-21T00:02:15.310Z,994.00
2018-12-21T00:03:15.233Z,994.01
2018-12-21T00:04:15.270Z,993.97
2018-12-21T00:05:15.209Z,994.02
2018-12-21T00:06:15.257Z,993.95
2018-12-21T00:07:15.197Z,993.97
2018-12-21T00:08:15.176Z,994.00
2018-12-21T00:09:15.160Z,994.05
2018-12-21T00:10:15.177Z,994.04
2018-12-21T00:11:15.163Z,993.97
2018-12-21T00:12:15.166Z,993.96
2018-12-21T00:13:15.121Z,993.96
2018-12-21T00:14:15.107Z,994.01
2018-12-21T00:15:15.102Z,994.02
2018-12-21T00:16:15.124Z,994.02
2018-12-21T00:17:15.114Z,994.02
2018-12-21T00:18:15.095Z,994.01
2018-12-21T00:19:15.115Z,993.99
2018-12-21T00:20:15.041Z,994.01
2018-12-21T00:21:21.807Z,993.98
2018-12-21T00:22:16.018Z,993.94
2018-12-21T00:23:15.023Z,993.90
2018-12-21T00:24:15.040Z,993.96
2018-12-21T00:25:15.009Z,993.85
2018-12-21T00:26:14.976Z,993.91
2018-12-21T00:27:14.963Z,993.85
2018-12-21T00:28:14.952Z,993.76
2018-12-21T00:29:14.946Z,993.78
2018-12-21T00:30:15.005Z,993.72
2018-12-21T00:31:14.933Z,993.67
2018-12-21T00:32:14.924Z,993.68
2018-12-21T00:33:14.899Z,993.62
2018-12-21T00:34:14.899Z,993.59
2018-12-21T00:35:14.879Z,993.58
2018-12-21T00:36:14.993Z,993.54
2018-12-21T00:37:14.857Z,993.57
2018-12-21T00:38:14.861Z,993.50
2018-12-21T00:39:14.859Z,993.51
2018-12-21T00:40:14.838Z,993.45
2018-12-21T00:41:14.815Z,993.43
2018-12-21T00:42:14.970Z,993.46
2018-12-21T00:43:14.802Z,993.46
2018-12-21T00:44:14.786Z,993.48
2018-12-21T00:45:14.785Z,993.48
2018-12-21T00:46:14.764Z,993.52
2018-12-21T00:47:14.754Z,993.51
2018-12-21T00:48:14.776Z,993.58
2018-12-21T00:49:14.721Z,993.58
2018-12-21T00:50:14.724Z,993.62
2018-12-21T00:51:14.712Z,993.61
2018-12-21T00:52:14.698Z,993.58
2018-12-21T00:53:14.689Z,993.59
2018-12-21T00:54:14.735Z,993.57
2018-12-21T00:55:14.656Z,993.59
2018-12-21T00:56:14.642Z,993.59
2018-12-21T00:57:14.646Z,993.62
2018-12-21T00:58:14.629Z,993.51
2018-12-21T00:59:14.633Z,993.53
2018-12-21T01:00:14.702Z,993.52
2018-12-21T01:01:14.625Z,993.49
2018-12-21T01:02:14.576Z,993.54
2018-12-21T01:03:14.567Z,993.51
2018-12-21T01:04:14.565Z,993.55
2018-12-21T01:05:14.546Z,993.50
2018-12-21T01:06:14.588Z,993.48
2018-12-21T01:07:14.522Z,993.47
2018-12-21T01:08:14.513Z,993.42
2018-12-21T01:09:14.503Z,993.39
2018-12-21T01:10:14.498Z,993.40
2018-12-21T01:11:14.560Z,993.35
2018-12-21T01:12:14.537Z,993.32
2018-12-21T01:13:14.470Z,993.36
2018-12-21T01:14:14.460Z,993.35
2018-12-21T01:15:14.456Z,993.37
2018-12-21T01:16:14.451Z,993.38
2018-12-21T01:17:14.414Z,993.37
2018-12-21T01:18:14.434Z,993.38
2018-12-21T01:19:14.391Z,993.34
2018-12-21T01:20:14.476Z,993.28
2018-12-21T01:21:14.370Z,993.28
2018-12-21T01:22:14.381Z,993.23
2018-12-21T01:23:14.351Z,993.23
2018-12-21T01:24:14.376Z,993.20
2018-12-21T01:25:14.323Z,993.23
2018-12-21T01:26:14.318Z,993.24
2018-12-21T01:27:14.302Z,993.13
2018-12-21T01:28:14.301Z,993.15
2018-12-21T01:29:14.281Z,993.13
2018-12-21T01:30:14.302Z,993.09
2018-12-21T01:31:14.260Z,993.00
2018-12-21T01:32:14.246Z,992.99
2018-12-21T01:33:14.236Z,992.94
2018-12-21T01:34:14.231Z,992.87
2018-12-21T01:35:14.216Z,992.96
2018-12-21T01:36:14.250Z,992.86
2018-12-21T01:37:14.191Z,992.84
2018-12-21T01:38:14.180Z,992.75
2018-12-21T01:39:14.173Z,992.80
2018-12-21T01:40:14.170Z,992.82
2018-12-21T01:41:14.164Z,992.78
2018-12-21T01:42:14.177Z,992.85
2018-12-21T01:43:14.142Z,992.82
2018-12-21T01:44:14.114Z,992.76
2018-12-21T01:45:14.107Z,992.81
2018-12-21T01:46:14.091Z,992.70
2018-12-21T01:47:14.105Z,992.78
2018-12-21T01:48:14.098Z,992.78
2018-12-21T01:49:14.068Z,992.72
2018-12-21T01:50:14.045Z,992.73
2018-12-21T01:51:14.047Z,992.78
2018-12-21T01:52:14.030Z,992.75
2018-12-21T01:53:14.020Z,992.69
2018-12-21T01:54:14.053Z,992.68
2018-12-21T01:55:14.005Z,992.67
2018-12-21T01:56:13.978Z,992.60
2018-12-21T01:57:13.972Z,992.60
2018-12-21T01:58:13.959Z,992.62
2018-12-21T01:59:13.952Z,992.56
2018-12-21T02:00:13.993Z,992.58
2018-12-21T02:01:13.931Z,992.53
2018-12-21T02:02:13.916Z,992.48
2018-12-21T02:03:13.902Z,992.46
2018-12-21T02:04:13.897Z,992.46
2018-12-21T02:05:13.892Z,992.47
2018-12-21T02:06:13.960Z,992.36
2018-12-21T02:07:13.870Z,992.36
2018-12-21T02:08:13.862Z,992.29
2018-12-21T02:09:13.849Z,992.29
2018-12-21T02:10:13.864Z,992.32
2018-12-21T02:11:13.819Z,992.27
2018-12-21T02:12:13.836Z,992.30
2018-12-21T02:13:13.802Z,992.22
2018-12-21T02:14:13.782Z,992.23
2018-12-21T02:15:13.777Z,992.21
2018-12-21T02:16:13.788Z,992.07
2018-12-21T02:17:13.847Z,992.07
2018-12-21T02:18:13.778Z,992.06
2018-12-21T02:19:13.729Z,991.96
2018-12-21T02:20:13.727Z,992.06
2018-12-21T02:21:13.709Z,991.93
2018-12-21T02:22:13.702Z,991.89
2018-12-21T02:23:13.686Z,991.97
2018-12-21T02:24:13.706Z,991.97
2018-12-21T02:25:13.675Z,991.92
2018-12-21T02:26:13.651Z,991.86
2018-12-21T02:27:13.644Z,991.91
2018-12-21T02:28:13.634Z,991.93
2018-12-21T02:29:13.637Z,991.87
2018-12-21T02:30:13.647Z,991.81
2018-12-21T02:31:13.606Z,991.80
2018-12-21T02:32:13.611Z,991.77
2018-12-21T02:33:13.600Z,991.70
2018-12-21T02:34:13.579Z,991.72
2018-12-21T02:35:13.573Z,991.73
2018-12-21T02:36:13.586Z,991.68
2018-12-21T02:37:13.544Z,991.69
2018-12-21T02:38:13.529Z,991.66
2018-12-21T02:39:13.510Z,991.71
2018-12-21T02:40:13.499Z,991.64
2018-12-21T02:41:13.504Z,991.64
2018-12-21T02:42:13.523Z,991.63
2018-12-21T02:43:13.471Z,991.56
2018-12-21T02:44:13.468Z,991.55
2018-12-21T02:45:13.458Z,991.49
2018-12-21T02:46:13.437Z,991.46
2018-12-21T02:47:13.466Z,991.40
2018-12-21T02:48:13.482Z,991.33
2018-12-21T02:49:13.401Z,991.28
2018-12-21T02:50:13.393Z,991.27
2018-12-21T02:51:13.381Z,991.26
2018-12-21T02:52:13.367Z,991.14
2018-12-21T02:53:13.373Z,991.19
2018-12-21T02:54:13.405Z,991.21
2018-12-21T02:55:13.350Z,991.12
2018-12-21T02:56:13.339Z,991.13
2018-12-21T02:57:13.385Z,991.16
2018-12-21T02:58:13.313Z,991.13
2018-12-21T02:59:13.312Z,991.11
2018-12-21T03:00:13.311Z,991.06
2018-12-21T03:01:13.287Z,991.12
2018-12-21T03:02:13.274Z,991.08
2018-12-21T03:03:13.242Z,991.07
2018-12-21T03:04:13.242Z,991.02
2018-12-21T03:05:13.225Z,991.01
2018-12-21T03:06:13.412Z,991.02
2018-12-21T03:07:13.209Z,991.00
2018-12-21T03:08:13.190Z,990.96
2018-12-21T03:09:13.186Z,990.97
2018-12-21T03:10:13.176Z,990.95
2018-12-21T03:11:13.155Z,990.94
2018-12-21T03:12:13.204Z,990.98
2018-12-21T03:13:13.140Z,991.03
2018-12-21T03:14:13.142Z,991.01
2018-12-21T03:15:13.167Z,990.93
2018-12-21T03:16:13.106Z,990.97
2018-12-21T03:17:13.259Z,990.95
2018-12-21T03:18:13.128Z,990.93
2018-12-21T03:19:13.064Z,990.90
2018-12-21T03:20:13.068Z,990.90
2018-12-21T03:21:13.042Z,990.91
2018-12-21T03:22:15.156Z,990.87
2018-12-21T03:23:13.048Z,990.79
2018-12-21T03:24:13.055Z,990.80
2018-12-21T03:25:13.001Z,990.77
2018-12-21T03:26:12.989Z,990.72
2018-12-21T03:27:12.981Z,990.66
2018-12-21T03:28:13.013Z,990.57
2018-12-21T03:29:12.958Z,990.61
2018-12-21T03:30:12.996Z,990.57
2018-12-21T03:31:13.069Z,990.48
2018-12-21T03:32:12.981Z,990.44
2018-12-21T03:33:12.935Z,990.42
2018-12-21T03:34:12.924Z,990.43
2018-12-21T03:35:13.011Z,990.38
2018-12-21T03:36:12.968Z,990.29
2018-12-21T03:37:12.906Z,990.31
2018-12-21T03:38:12.853Z,990.28
2018-12-21T03:39:12.854Z,990.24
2018-12-21T03:40:12.850Z,990.28
2018-12-21T03:41:12.825Z,990.31
2018-12-21T03:42:12.852Z,990.20
2018-12-21T03:43:12.813Z,990.17
2018-12-21T03:44:12.790Z,990.15
2018-12-21T03:45:12.792Z,990.21
2018-12-21T03:46:12.789Z,990.18
2018-12-21T03:47:12.749Z,990.15
2018-12-21T03:48:12.784Z,990.21
2018-12-21T03:49:12.730Z,990.15
2018-12-21T03:50:12.718Z,990.10
2018-12-21T03:51:12.706Z,990.12
2018-12-21T03:52:12.703Z,990.13
2018-12-21T03:53:12.698Z,990.00
2018-12-21T03:54:12.714Z,990.00
2018-12-21T03:55:12.667Z,989.89
2018-12-21T03:56:12.661Z,989.84
2018-12-21T03:57:12.645Z,989.74
2018-12-21T03:58:12.632Z,989.77
2018-12-21T03:59:12.620Z,989.73
2018-12-21T04:00:12.653Z,989.65
2018-12-21T04:01:12.657Z,989.61
2018-12-21T04:02:12.603Z,989.71
2018-12-21T04:03:12.602Z,989.62
2018-12-21T04:04:12.578Z,989.59
2018-12-21T04:05:12.561Z,989.56
2018-12-21T04:06:12.590Z,989.52
2018-12-21T04:07:12.547Z,989.50
2018-12-21T04:08:12.539Z,989.50
2018-12-21T04:09:12.513Z,989.31
2018-12-21T04:10:12.499Z,989.33
2018-12-21T04:11:12.498Z,989.33
2018-12-21T04:12:12.515Z,989.29
2018-12-21T04:13:12.466Z,989.24
2018-12-21T04:14:12.471Z,989.28
2018-12-21T04:15:12.448Z,989.19
2018-12-21T04:16:12.462Z,989.14
2018-12-21T04:17:12.425Z,989.00
2018-12-21T04:18:12.463Z,989.05
2018-12-21T04:19:12.409Z,989.01
2018-12-21T04:20:19.989Z,989.02
2018-12-21T04:21:19.918Z,989.00
2018-12-21T04:22:19.914Z,989.08
2018-12-21T04:23:20.583Z,988.99
2018-12-21T04:24:12.345Z,988.88
2018-12-21T04:25:12.335Z,988.92
2018-12-21T04:26:12.320Z,988.85
2018-12-21T04:27:12.307Z,988.82
2018-12-21T04:28:12.300Z,988.86
2018-12-21T04:29:12.325Z,988.85
2018-12-21T04:30:12.314Z,988.87
2018-12-21T04:31:12.263Z,988.86
2018-12-21T04:32:12.250Z,988.89
2018-12-21T04:33:12.249Z,988.77
2018-12-21T04:34:12.235Z,988.62
2018-12-21T04:35:12.281Z,988.52
2018-12-21T04:36:12.213Z,988.53
2018-12-21T04:37:12.207Z,988.48
2018-12-21T04:38:12.188Z,988.57
2018-12-21T04:39:12.173Z,988.57
2018-12-21T04:40:12.174Z,988.67
2018-12-21T04:41:12.209Z,988.61
2018-12-21T04:42:12.184Z,988.61
2018-12-21T04:43:12.138Z,988.51
2018-12-21T04:44:12.211Z,988.64
2018-12-21T04:45:12.112Z,988.52
2018-12-21T04:46:12.159Z,988.28
2018-12-21T04:47:12.113Z,988.50
2018-12-21T04:48:12.104Z,988.56
2018-12-21T04:49:12.076Z,988.60
2018-12-21T04:50:12.064Z,988.48
2018-12-21T04:51:12.058Z,988.48
2018-12-21T04:52:12.049Z,988.52
2018-12-21T04:53:12.065Z,988.51
2018-12-21T04:54:12.016Z,988.44
2018-12-21T04:55:12.006Z,988.48
2018-12-21T04:56:11.994Z,988.36
2018-12-21T04:57:11.980Z,988.41
2018-12-21T04:58:11.996Z,988.34
2018-12-21T04:59:12.016Z,988.38
2018-12-21T05:00:11.950Z,988.30
2018-12-21T05:01:11.964Z,988.27
2018-12-21T05:02:11.922Z,988.28
2018-12-21T05:03:11.923Z,988.27
2018-12-21T05:04:19.822Z,988.25
2018-12-21T05:05:12.925Z,988.31
2018-12-21T05:06:11.874Z,988.25
2018-12-21T05:07:12.495Z,988.12
2018-12-21T05:08:11.875Z,988.13
2018-12-21T05:09:11.899Z,988.18
2018-12-21T05:10:11.860Z,988.12
2018-12-21T05:11:11.877Z,987.98
2018-12-21T05:12:11.822Z,988.00
2018-12-21T05:13:11.835Z,987.95
2018-12-21T05:14:11.798Z,988.02
2018-12-21T05:15:11.787Z,987.90
2018-12-21T05:16:11.787Z,987.96
2018-12-21T05:17:11.817Z,987.76
2018-12-21T05:18:11.743Z,987.85
2018-12-21T05:19:11.746Z,987.81
2018-12-21T05:20:11.782Z,987.76
2018-12-21T05:21:11.723Z,987.75
2018-12-21T05:22:11.712Z,987.58
2018-12-21T05:23:11.742Z,987.64
2018-12-21T05:24:11.679Z,987.62
2018-12-21T05:25:11.681Z,987.61
2018-12-21T05:26:11.656Z,987.56
2018-12-21T05:27:11.649Z,987.39
2018-12-21T05:28:11.646Z,987.46
2018-12-21T05:29:11.654Z,987.42
2018-12-21T05:30:11.610Z,987.48
2018-12-21T05:31:11.605Z,987.57
2018-12-21T05:32:11.590Z,987.42
2018-12-21T05:33:11.594Z,987.54
2018-12-21T05:34:11.568Z,987.48
2018-12-21T05:35:11.601Z,987.49
2018-12-21T05:36:11.545Z,987.56
2018-12-21T05:37:11.533Z,987.47
2018-12-21T05:38:11.521Z,987.48
2018-12-21T05:39:11.527Z,987.40
2018-12-21T05:40:11.526Z,987.41
2018-12-21T05:41:11.539Z,987.43
2018-12-21T05:42:11.478Z,987.38
2018-12-21T05:43:11.478Z,987.43
2018-12-21T05:44:11.457Z,987.46
2018-12-21T05:45:11.454Z,987.36
2018-12-21T05:46:11.441Z,987.49
2018-12-21T05:47:11.507Z,987.44
2018-12-21T05:48:11.420Z,987.37
2018-12-21T05:49:11.419Z,987.29
2018-12-21T05:50:11.393Z,987.26
2018-12-21T05:51:11.386Z,987.21
2018-12-21T05:52:11.381Z,987.15
2018-12-21T05:53:11.406Z,987.25
2018-12-21T05:54:11.346Z,987.11
2018-12-21T05:55:11.338Z,987.12
2018-12-21T05:56:11.332Z,987.07
2018-12-21T05:57:11.324Z,987.10
2018-12-21T05:58:11.301Z,986.96
2018-12-21T05:59:11.324Z,986.99
2018-12-21T06:00:11.282Z,986.92
2018-12-21T06:01:11.268Z,986.86
2018-12-21T06:02:11.268Z,986.74
2018-12-21T06:03:11.257Z,986.86
2018-12-21T06:04:11.249Z,986.64
2018-12-21T06:05:11.285Z,986.69
2018-12-21T06:06:11.234Z,986.78
2018-12-21T06:07:11.220Z,986.63
2018-12-21T06:08:11.200Z,986.59
2018-12-21T06:09:11.210Z,986.65
2018-12-21T06:10:11.184Z,986.57
2018-12-21T06:11:11.199Z,986.56
2018-12-21T06:12:11.153Z,986.51
2018-12-21T06:13:11.147Z,986.33
2018-12-21T06:14:11.157Z,986.35
2018-12-21T06:15:11.138Z,986.39
2018-12-21T06:16:11.118Z,986.35
2018-12-21T06:17:11.133Z,986.41
2018-12-21T06:18:11.099Z,986.32
2018-12-21T06:19:12.297Z,986.28
2018-12-21T06:20:11.100Z,986.28
2018-12-21T06:21:11.054Z,986.32
2018-12-21T06:22:11.058Z,986.36
2018-12-21T06:23:11.068Z,986.35
2018-12-21T06:24:11.022Z,986.35
2018-12-21T06:25:11.017Z,986.34
2018-12-21T06:26:11.007Z,986.26
2018-12-21T06:27:10.993Z,986.31
2018-12-21T06:28:10.978Z,986.30
2018-12-21T06:29:11.027Z,986.37
2018-12-21T06:30:10.954Z,986.32
2018-12-21T06:31:10.957Z,986.27
2018-12-21T06:32:10.930Z,986.26
2018-12-21T06:33:10.933Z,986.31
2018-12-21T06:34:10.907Z,986.29
2018-12-21T06:35:10.950Z,986.30
2018-12-21T06:36:10.922Z,986.26
2018-12-21T06:37:10.902Z,986.31
2018-12-21T06:38:10.867Z,986.26
2018-12-21T06:39:10.876Z,986.27
2018-12-21T06:40:10.852Z,986.19
2018-12-21T06:41:10.902Z,986.20
2018-12-21T06:42:10.848Z,986.19
2018-12-21T06:43:10.830Z,986.29
2018-12-21T06:44:10.803Z,986.12
2018-12-21T06:45:10.788Z,986.08
2018-12-21T06:46:14.300Z,986.07
2018-12-21T06:47:10.828Z,986.10
2018-12-21T06:48:10.790Z,985.96
2018-12-21T06:49:10.755Z,985.97
2018-12-21T06:50:10.740Z,986.03
2018-12-21T06:51:10.760Z,985.93
2018-12-21T06:52:10.723Z,985.90
2018-12-21T06:53:17.852Z,985.83
2018-12-21T06:54:11.707Z,985.77
2018-12-21T06:55:10.678Z,985.76
2018-12-21T06:56:10.673Z,985.82
2018-12-21T06:57:10.685Z,985.71
2018-12-21T06:58:10.651Z,985.75
2018-12-21T06:59:10.685Z,985.70
2018-12-21T07:00:10.646Z,985.74
2018-12-21T07:01:10.619Z,985.81
2018-12-21T07:02:10.616Z,985.81
2018-12-21T07:03:16.999Z,985.77
2018-12-21T07:04:11.615Z,985.70
2018-12-21T07:05:10.577Z,985.70
2018-12-21T07:06:10.586Z,985.64
2018-12-21T07:07:10.552Z,985.61
2018-12-21T07:08:10.535Z,985.66
2018-12-21T07:09:10.520Z,985.63
2018-12-21T07:10:10.561Z,985.61
2018-12-21T07:11:10.523Z,985.58
2018-12-21T07:12:10.822Z,985.56
2018-12-21T07:13:11.277Z,985.56
2018-12-21T07:14:11.393Z,985.45
2018-12-21T07:15:10.504Z,985.50
2018-12-21T07:16:10.491Z,985.46
2018-12-21T07:17:10.434Z,985.44
2018-12-21T07:18:10.419Z,985.41
2018-12-21T07:19:10.415Z,985.41
2018-12-21T07:20:10.402Z,985.38
2018-12-21T07:21:10.388Z,985.40
2018-12-21T07:22:10.426Z,985.29
2018-12-21T07:23:10.413Z,985.33
2018-12-21T07:24:10.382Z,985.24
2018-12-21T07:25:10.382Z,985.11
2018-12-21T07:26:10.334Z,985.10
2018-12-21T07:27:10.361Z,985.15
2018-12-21T07:28:10.341Z,985.20
2018-12-21T07:29:10.305Z,985.16
2018-12-21T07:30:10.329Z,985.07
2018-12-21T07:31:10.298Z,985.17
2018-12-21T07:32:10.271Z,985.09
2018-12-21T07:33:10.256Z,985.08
2018-12-21T07:34:10.286Z,985.07
2018-12-21T07:35:10.258Z,985.06
2018-12-21T07:36:10.236Z,985.01
2018-12-21T07:37:10.213Z,985.02
2018-12-21T07:38:10.203Z,985.03
2018-12-21T07:39:10.194Z,984.96
2018-12-21T07:40:10.245Z,984.85
2018-12-21T07:41:10.170Z,984.93
2018-12-21T07:42:10.162Z,984.89
2018-12-21T07:43:10.155Z,984.89
2018-12-21T07:44:10.136Z,984.86
2018-12-21T07:45:10.128Z,984.77
2018-12-21T07:46:10.176Z,984.78
2018-12-21T07:47:10.105Z,984.74
2018-12-21T07:48:10.101Z,984.83
2018-12-21T07:49:10.090Z,984.75
2018-12-21T07:50:10.109Z,984.74
2018-12-21T07:51:10.067Z,984.76
2018-12-21T07:52:10.090Z,984.59
2018-12-21T07:53:10.041Z,984.53
2018-12-21T07:54:10.076Z,984.53
2018-12-21T07:55:10.026Z,984.52
2018-12-21T07:56:10.012Z,984.49
2018-12-21T07:57:10.035Z,984.48
2018-12-21T07:58:10.057Z,984.29
2018-12-21T07:59:09.972Z,984.27
2018-12-21T08:00:09.965Z,984.20
2018-12-21T08:01:09.951Z,984.18
2018-12-21T08:02:09.938Z,984.19
2018-12-21T08:03:09.952Z,984.18
2018-12-21T08:04:09.968Z,984.11
2018-12-21T08:05:10.019Z,984.01
2018-12-21T08:06:09.900Z,983.98
2018-12-21T08:07:09.899Z,983.94
2018-12-21T08:08:09.876Z,983.84
2018-12-21T08:09:09.871Z,983.85
2018-12-21T08:10:09.885Z,983.82
2018-12-21T08:11:09.834Z,983.73
2018-12-21T08:12:09.855Z,983.75
2018-12-21T08:13:09.823Z,983.74
2018-12-21T08:14:09.820Z,983.64
2018-12-21T08:15:09.810Z,983.66
2018-12-21T08:16:09.821Z,983.61
2018-12-21T08:17:09.775Z,983.55
2018-12-21T08:18:09.767Z,983.55
2018-12-21T08:19:09.903Z,983.52
2018-12-21T08:20:09.741Z,983.59
2018-12-21T08:21:09.749Z,983.52
2018-12-21T08:22:09.747Z,983.57
2018-12-21T08:23:09.718Z,983.54
2018-12-21T08:24:09.706Z,983.55
2018-12-21T08:25:09.705Z,983.52
2018-12-21T08:26:09.685Z,983.41
2018-12-21T08:27:09.748Z,983.44
2018-12-21T08:28:09.696Z,983.36
2018-12-21T08:29:09.699Z,983.46
2018-12-21T08:30:09.691Z,983.40
2018-12-21T08:31:11.240Z,983.33
2018-12-21T08:32:09.609Z,983.34
2018-12-21T08:33:09.605Z,983.30
2018-12-21T08:34:09.616Z,983.31
2018-12-21T08:35:09.570Z,983.27
2018-12-21T08:36:09.562Z,983.32
2018-12-21T08:37:09.550Z,983.26
2018-12-21T08:38:09.544Z,983.38
2018-12-21T08:39:09.781Z,983.19
2018-12-21T08:40:09.551Z,983.23
2018-12-21T08:41:09.511Z,983.25
2018-12-21T08:42:09.500Z,983.18
2018-12-21T08:43:09.552Z,983.22
2018-12-21T08:44:09.472Z,983.05
2018-12-21T08:45:09.464Z,982.96
2018-12-21T08:46:09.483Z,982.97
2018-12-21T08:47:09.450Z,982.92
2018-12-21T08:48:09.432Z,982.89
2018-12-21T08:49:09.422Z,982.78
2018-12-21T08:50:09.411Z,982.74
2018-12-21T08:51:09.394Z,982.76
2018-12-21T08:52:09.410Z,982.64
2018-12-21T08:53:09.374Z,982.67
2018-12-21T08:54:09.360Z,982.59
2018-12-21T08:55:09.357Z,982.66
2018-12-21T08:56:09.346Z,982.68
2018-12-21T08:57:09.323Z,982.70
2018-12-21T08:58:09.389Z,982.47
2018-12-21T08:59:09.306Z,982.51
2018-12-21T09:00:09.309Z,982.45
2018-12-21T09:01:09.358Z,982.41
2018-12-21T09:02:09.301Z,982.36
2018-12-21T09:03:09.297Z,982.49
2018-12-21T09:04:09.277Z,982.52
2018-12-21T09:05:09.255Z,982.41
2018-12-21T09:06:09.321Z,982.37
2018-12-21T09:07:09.218Z,982.28
2018-12-21T09:08:09.210Z,982.33
2018-12-21T09:09:09.203Z,982.19
2018-12-21T09:10:09.239Z,982.22
2018-12-21T09:11:09.198Z,982.18
2018-12-21T09:12:09.177Z,982.06
2018-12-21T09:13:09.193Z,982.01
2018-12-21T09:14:09.139Z,982.08
2018-12-21T09:15:09.127Z,981.93
2018-12-21T09:16:09.155Z,982.07
2018-12-21T09:17:09.134Z,982.07
2018-12-21T09:18:09.098Z,982.06
2018-12-21T09:19:09.079Z,982.08
2018-12-21T09:20:09.071Z,982.12
2018-12-21T09:21:09.072Z,982.11
2018-12-21T09:22:09.120Z,982.08
2018-12-21T09:23:09.046Z,982.08
2018-12-21T09:24:09.025Z,982.06
2018-12-21T09:25:09.016Z,982.03
2018-12-21T09:26:09.013Z,982.04
2018-12-21T09:27:08.992Z,981.91
2018-12-21T09:28:09.020Z,982.06
2018-12-21T09:29:08.975Z,981.97
2018-12-21T09:30:08.969Z,981.94
2018-12-21T09:31:08.982Z,981.99
2018-12-21T09:32:08.937Z,981.93
2018-12-21T09:33:08.929Z,981.84
2018-12-21T09:34:08.952Z,981.74
2018-12-21T09:35:08.902Z,981.81
2018-12-21T09:36:08.900Z,981.79
2018-12-21T09:37:08.905Z,981.79
2018-12-21T09:38:08.871Z,981.71
2018-12-21T09:39:08.856Z,981.75
2018-12-21T09:40:08.908Z,981.70
2018-12-21T09:41:08.853Z,981.68
2018-12-21T09:42:08.847Z,981.68
2018-12-21T09:43:08.839Z,981.71
2018-12-21T09:44:08.810Z,981.66
2018-12-21T09:45:08.799Z,981.70
2018-12-21T09:46:08.836Z,981.86
2018-12-21T09:47:08.781Z,981.74
2018-12-21T09:48:08.761Z,981.79
2018-12-21T09:49:08.766Z,981.74
2018-12-21T09:50:08.738Z,981.82
2018-12-21T09:51:08.862Z,981.80
2018-12-21T09:52:08.749Z,981.90
2018-12-21T09:53:08.733Z,981.84
2018-12-21T09:54:09.981Z,981.89
2018-12-21T09:55:08.687Z,981.83
2018-12-21T09:56:08.745Z,981.71
2018-12-21T09:57:08.708Z,981.64
2018-12-21T09:58:08.681Z,981.73
2018-12-21T09:59:08.671Z,981.58
2018-12-21T10:00:08.632Z,981.71
2018-12-21T10:01:08.618Z,981.58
2018-12-21T10:02:08.611Z,981.73
2018-12-21T10:03:08.598Z,981.92
2018-12-21T10:04:08.616Z,981.75
2018-12-21T10:05:08.575Z,981.74
2018-12-21T10:06:08.569Z,981.74
2018-12-21T10:07:08.599Z,981.79
2018-12-21T10:08:08.555Z,981.70
2018-12-21T10:09:08.528Z,981.84
2018-12-21T10:10:08.554Z,981.76
2018-12-21T10:11:08.526Z,981.74
2018-12-21T10:12:08.490Z,981.70
2018-12-21T10:13:08.728Z,981.67
2018-12-21T10:14:08.470Z,981.66
2018-12-21T10:15:08.515Z,981.86
2018-12-21T10:16:08.485Z,981.87
2018-12-21T10:17:08.436Z,981.62
2018-12-21T10:18:08.437Z,981.75
2018-12-21T10:19:08.446Z,981.86
2018-12-21T10:20:08.435Z,981.87
2018-12-21T10:21:08.415Z,981.86
2018-12-21T10:22:08.465Z,981.91
2018-12-21T10:23:08.370Z,982.03
2018-12-21T10:24:08.377Z,981.93
2018-12-21T10:25:08.344Z,982.01
2018-12-21T10:26:08.346Z,982.09
2018-12-21T10:27:08.333Z,982.05
2018-12-21T10:28:08.492Z,982.03
2018-12-21T10:29:08.371Z,982.07
2018-12-21T10:30:08.306Z,982.08
2018-12-21T10:31:08.278Z,982.11
2018-12-21T10:32:08.286Z,982.07
2018-12-21T10:33:08.267Z,982.00
2018-12-21T10:34:08.283Z,982.06
2018-12-21T10:35:08.248Z,982.11
2018-12-21T10:36:08.234Z,981.97
2018-12-21T10:37:08.217Z,982.09
2018-12-21T10:38:08.201Z,982.09
2018-12-21T10:39:08.192Z,981.97
2018-12-21T10:40:08.239Z,982.05
2018-12-21T10:41:08.173Z,982.05
2018-12-21T10:42:08.155Z,982.02
2018-12-21T10:43:08.147Z,982.02
2018-12-21T10:44:08.154Z,982.05
2018-12-21T10:45:08.124Z,982.13
2018-12-21T10:46:08.184Z,981.95
2018-12-21T10:47:08.100Z,982.14
2018-12-21T10:48:08.170Z,982.00
2018-12-21T10:49:08.085Z,982.02
2018-12-21T10:50:08.071Z,981.95
2018-12-21T10:51:08.054Z,982.17
2018-12-21T10:52:08.095Z,982.22
2018-12-21T10:53:08.035Z,982.18
2018-12-21T10:54:08.036Z,982.12
2018-12-21T10:55:08.027Z,982.11
2018-12-21T10:56:08.007Z,982.11
2018-12-21T10:57:07.985Z,981.98
2018-12-21T10:58:08.025Z,982.11
2018-12-21T10:59:07.966Z,981.99
2018-12-21T11:00:07.951Z,982.06
2018-12-21T11:01:07.939Z,981.99
2018-12-21T11:02:07.927Z,982.11
2018-12-21T11:03:07.919Z,982.14
2018-12-21T11:04:07.957Z,982.00
2018-12-21T11:05:07.901Z,982.07
2018-12-21T11:06:07.893Z,982.03
2018-12-21T11:07:07.879Z,982.02
2018-12-21T11:08:07.858Z,982.00
2018-12-21T11:09:07.885Z,982.10
2018-12-21T11:10:07.939Z,982.06
2018-12-21T11:11:07.830Z,981.99
2018-12-21T11:12:07.822Z,981.92
2018-12-21T11:13:07.803Z,981.91
2018-12-21T11:14:07.793Z,982.15
2018-12-21T11:15:07.780Z,982.04
2018-12-21T11:16:07.836Z,982.04
2018-12-21T11:17:07.768Z,982.04
2018-12-21T11:18:07.742Z,981.96
2018-12-21T11:19:07.735Z,981.97
2018-12-21T11:20:07.722Z,982.01
2018-12-21T11:21:07.738Z,981.91
2018-12-21T11:22:07.769Z,981.89
2018-12-21T11:23:07.687Z,981.97
2018-12-21T11:24:07.678Z,981.90
2018-12-21T11:25:07.674Z,981.87
2018-12-21T11:26:07.652Z,981.92
2018-12-21T11:27:07.642Z,982.02
2018-12-21T11:28:07.695Z,982.01
2018-12-21T11:29:07.619Z,981.95
2018-12-21T11:30:07.609Z,982.03
2018-12-21T11:31:07.597Z,982.01
2018-12-21T11:32:07.597Z,982.02
2018-12-21T11:33:07.584Z,982.04
2018-12-21T11:34:07.637Z,982.00
2018-12-21T11:35:07.552Z,982.08
2018-12-21T11:36:07.550Z,982.08
2018-12-21T11:37:07.536Z,981.93
2018-12-21T11:38:07.517Z,981.99
2018-12-21T11:39:07.505Z,981.93
2018-12-21T11:40:07.535Z,982.17
2018-12-21T11:41:07.491Z,982.10
2018-12-21T11:42:07.470Z,982.11
2018-12-21T11:43:07.458Z,982.12
2018-12-21T11:44:07.459Z,982.00
2018-12-21T11:45:07.452Z,982.05
2018-12-21T11:46:07.468Z,982.10
2018-12-21T11:47:07.420Z,982.11
2018-12-21T11:48:07.456Z,982.14
2018-12-21T11:49:07.397Z,982.11
2018-12-21T11:50:07.392Z,982.15
2018-12-21T11:51:07.376Z,982.13
2018-12-21T11:52:07.398Z,982.12
2018-12-21T11:53:08.219Z,982.01
2018-12-21T11:54:07.346Z,982.06
2018-12-21T11:55:15.916Z,982.13
2018-12-21T11:56:07.426Z,982.13
2018-12-21T11:57:07.316Z,982.19
2018-12-21T11:58:07.434Z,982.22
2018-12-21T11:59:07.279Z,982.17
2018-12-21T12:00:07.267Z,982.03
2018-12-21T12:01:07.283Z,982.16
2018-12-21T12:02:07.247Z,982.14
2018-12-21T12:03:07.249Z,982.19
2018-12-21T12:04:07.259Z,982.05
2018-12-21T12:05:07.214Z,982.12
2018-12-21T12:06:07.230Z,982.15
2018-12-21T12:07:07.201Z,982.23
2018-12-21T12:08:07.185Z,982.15
2018-12-21T12:09:07.171Z,982.24
2018-12-21T12:10:07.193Z,982.25
2018-12-21T12:11:07.143Z,982.28
2018-12-21T12:12:07.135Z,982.31
2018-12-21T12:13:07.122Z,982.29
2018-12-21T12:14:07.136Z,982.42
2018-12-21T12:15:07.105Z,982.24
2018-12-21T12:16:07.144Z,982.31
2018-12-21T12:17:07.079Z,982.21
2018-12-21T12:18:07.072Z,982.44
2018-12-21T12:19:07.067Z,982.25
2018-12-21T12:20:07.076Z,982.40
2018-12-21T12:21:07.057Z,982.24
2018-12-21T12:22:07.046Z,982.19
2018-12-21T12:23:07.009Z,982.27
2018-12-21T12:24:07.015Z,982.18
2018-12-21T12:25:06.990Z,982.20
2018-12-21T12:26:06.969Z,982.35
2018-12-21T12:27:06.997Z,982.31
2018-12-21T12:28:06.996Z,982.35